^^

NEARBY METAR REPORTS

KSQI - Sterling Rockfal, Illinois, USA
Distance from station: ESE 17mi, 27km
Updated: 02/22/2018 3:56am
NOT Current
Clear
Clear
 
Temperature: 27°F , -3°C
Dew Point: 21°F , -6°C
Humidity: 80%
Barometer: 30.52 inHg , 1033.5 hPa
Clouds: Clear
Visibility: 10 miles , 16 km
2018/02/22 09:56 KSQI 220956Z AUTO 10SM CLR M03/M06 A3052 RMK AO2 SLP359 T10281061 FZRANO $
KCWI - Clinton Muni, Iowa, USA
Distance from station: W 17mi, 28km
Updated: 02/22/2018 3:56am
NOT Current
Clear
Clear
 Wind from ENE
Wind: ENE 14 mph , 22 km/h
Temperature: 27°F , -3°C
Wind Chill: 16°F , -9°C
Dew Point: 19°F , -7°C
Humidity: 74%
Barometer: 30.52 inHg , 1033.5 hPa
Clouds: Clear
Visibility: 10 miles , 16 km
2018/02/22 09:56 KCWI 220956Z AUTO 06012KT 10SM CLR M03/M07 A3052 RMK AO2 SLP365 T10331072 FZRANO
KSFY - Savanna/Tritown, Illinois, USA
Distance from station: NNW 17mi, 28km
Updated: 02/22/2018 4:35am
Overcast
Overcast
 Wind from NE
Wind: NE 7 mph , 11 km/h
Temperature: 27°F , -3°C
Wind Chill: 19°F , -7°C
Dew Point: 18°F , -8°C
Humidity: 69%
Barometer: 30.54 inHg , 1034.2 hPa
Clouds: Overcast
Visibility: 10 miles , 16 km
Cloud details: Overcast 10000 ft
2018/02/22 10:35 KSFY 221035Z AUTO 04006KT 10SM OVC100 M03/M08 A3054 RMK AO2 T10301080
KDVN - Davenport/Quad C, Iowa, USA
Distance from station: WSW 34mi, 55km
Updated: 02/22/2018 3:52am
NOT Current
Overcast
Overcast
 Wind from NE
Wind: NE 14 mph , 22 km/h
Temperature: 27°F , -3°C
Wind Chill: 16°F , -9°C
Dew Point: 18°F , -8°C
Humidity: 69%
Barometer: 30.52 inHg , 1033.5 hPa
Clouds: Overcast
Visibility: 10 miles , 16 km
Cloud details: Overcast 9500 ft
2018/02/22 09:52 KDVN 220952Z AUTO 05012KT 10SM OVC095 M03/M08 A3052 RMK AO2 SLP341 T10281078
KFEP - Freeport, Illinois, USA
Distance from station: NE 36mi, 58km
Updated: 02/22/2018 4:35am
Clear
Clear
 Wind from NE
Wind: NE 14 mph , 22 km/h
Temperature: 25°F , -4°C
Wind Chill: 13°F , -11°C
Dew Point: 19°F , -7°C
Humidity: 80%
Barometer: 30.54 inHg , 1034.2 hPa
Clouds: Clear
Visibility: 10 miles , 16 km
2018/02/22 10:35 KFEP 221035Z AUTO 05012KT 10SM CLR M04/M07 A3054 RMK AO2 T10401075
KMLI - Moline/Quad City, Illinois, USA
Distance from station: SW 38mi, 61km
Updated: 02/22/2018 3:52am
NOT Current
Overcast
Overcast
 Wind from NE
Wind: NE 10 mph , 17 km/h
Temperature: 28°F , -2°C
Wind Chill: 19°F , -7°C
Dew Point: 19°F , -7°C
Humidity: 69%
Barometer: 30.50 inHg , 1032.8 hPa
Clouds: Overcast
Visibility: 10 miles , 16 km
Cloud details: Overcast 9000 ft
2018/02/22 09:52 KMLI 220952Z 05009KT 10SM OVC090 M02/M07 A3050 RMK AO2 SLP336 T10221072
KRPJ - Rochelle/Koritz, Illinois, USA
Distance from station: E 46mi, 75km
Updated: 02/22/2018 4:35am
Clear
Clear
 Wind from NE
Wind: NE 15 mph , 24 km/h
Temperature: 28°F , -2°C
Wind Chill: 16°F , -9°C
Dew Point: 23°F , -5°C
Humidity: 80%
Barometer: 30.53 inHg , 1033.9 hPa
Clouds: Clear
Visibility: 10 miles , 16 km
2018/02/22 10:35 KRPJ 221035Z AUTO 05013KT 10SM CLR M02/M05 A3053 RMK AO2 T10251051
KRFD - Rockford, Illinois, USA
Distance from station: ENE 52mi, 84km
Updated: 02/22/2018 3:54am
NOT Current
Overcast
Overcast
 Wind from NE
Wind: NE 10 mph , 17 km/h
Temperature: 27°F , -3°C
Wind Chill: 18°F , -8°C
Dew Point: 19°F , -7°C
Humidity: 74%
Barometer: 30.55 inHg , 1034.5 hPa
Clouds: Overcast
Visibility: 10 miles , 16 km
Cloud details: Overcast 14000 ft
2018/02/22 09:54 KRFD 220954Z 05009KT 10SM OVC140 M03/M07 A3055 RMK AO2 SLP357 T10281072
KVYS - Peru, Illinois, USA
Distance from station: SE 54mi, 86km
Updated: 02/22/2018 4:35am
Overcast
Overcast
 Wind from NE
Wind: NE 15 mph , 24 km/h
Temperature: 28°F , -2°C
Wind Chill: 16°F , -9°C
Dew Point: 25°F , -4°C
Humidity: 86%
Barometer: 30.50 inHg , 1032.8 hPa
Clouds: Overcast
Visibility: 10 miles , 16 km
Cloud details: Overcast 11000 ft
2018/02/22 10:35 KVYS 221035Z AUTO 05013KT 10SM OVC110 M02/M04 A3050 RMK AO2 T10201045
KDBQ - Dubuque, Iowa, USA
Distance from station: NW 55mi, 88km
Updated: 02/22/2018 3:53am
NOT Current
Overcast
Overcast
 Wind from NNE
Wind: NNE 8 mph , 13 km/h
Temperature: 23°F , -5°C
Wind Chill: 14°F , -10°C
Dew Point: 12°F , -11°C
Humidity: 63%
Barometer: 30.53 inHg , 1033.9 hPa
Clouds: Overcast
Visibility: 10 miles , 16 km
Cloud details: Overcast 11000 ft
2018/02/22 09:53 KDBQ 220953Z AUTO 03007KT 10SM OVC110 M05/M11 A3053 RMK AO2 SLP357 T10501106